Time;durP1;ratioP1;P1;durP2;ratioP2;P2;SDS_P1;SDS_P2;PMS_P1;PMS_P2;Temp;Humidity;BMP_temperature;BMP_pressure;BME280_temperature;BME280_humidity;BME280_pressure;Samples;Min_cycle;Max_cycle;Signal;HPM_P1;HPM_P2
2021/09/29 00:00:13;;;;;;;3.00;1.35;;;;;;;14.98;74.15;100222.06;5013157;28;20026;-91
2021/09/29 00:02:39;;;;;;;4.43;1.23;;;;;;;14.96;73.92;100231.94;5011185;28;20041;-91
2021/09/29 00:05:05;;;;;;;5.50;1.90;;;;;;;14.98;74.61;100239.72;5013388;28;20030;-91
2021/09/29 00:07:31;;;;;;;2.28;1.75;;;;;;;14.98;74.74;100248.50;5011984;28;20030;-90
2021/09/29 00:09:56;;;;;;;1.67;1.30;;;;;;;14.97;75.01;100245.97;5013080;28;20579;-91
2021/09/29 00:12:21;;;;;;;3.92;1.42;;;;;;;14.97;74.87;100251.25;5013104;28;20520;-91
2021/09/29 00:14:47;;;;;;;3.85;1.30;;;;;;;14.98;74.39;100253.78;5013092;28;20084;-91
2021/09/29 00:17:13;;;;;;;4.85;1.23;;;;;;;14.88;74.74;100263.50;5023682;28;20029;-91
2021/09/29 00:19:38;;;;;;;3.28;1.02;;;;;;;14.92;74.93;100270.19;5015879;28;20091;-91
2021/09/29 00:22:04;;;;;;;5.72;1.45;;;;;;;14.89;74.64;100270.47;5012967;28;20030;-91
2021/09/29 00:24:29;;;;;;;3.28;2.08;;;;;;;14.85;74.55;100258.50;5012845;28;20365;-90
2021/09/29 00:26:54;;;;;;;3.97;1.40;;;;;;;14.61;74.01;100267.63;5012697;28;20021;-91
2021/09/29 00:29:20;;;;;;;5.75;1.55;;;;;;;14.57;74.53;100271.47;5012282;28;20097;-90
2021/09/29 00:31:45;;;;;;;7.40;2.15;;;;;;;14.18;74.83;100279.19;5017515;28;20037;-90
2021/09/29 00:34:22;;;;;;;3.05;1.42;;;;;;;14.55;74.94;100277.81;5032427;28;20125;-90
2021/09/29 00:36:47;;;;;;;10.77;1.55;;;;;;;14.60;74.90;100286.22;5032381;28;20033;-91
2021/09/29 00:39:14;;;;;;;3.20;0.88;;;;;;;14.70;73.94;100295.03;5032230;28;20025;-91
2021/09/29 00:41:40;;;;;;;4.38;1.10;;;;;;;14.58;73.00;100291.66;5032205;28;20026;-89
2021/09/29 00:44:07;;;;;;;2.92;0.70;;;;;;;14.53;73.63;100301.72;5032321;28;20088;-91
2021/09/29 00:46:33;;;;;;;3.17;1.33;;;;;;;14.52;72.86;100313.28;5027934;28;20484;-90
2021/09/29 00:48:58;;;;;;;4.07;0.93;;;;;;;14.45;72.81;100309.47;5012415;28;20068;-91
2021/09/29 00:51:24;;;;;;;2.10;1.05;;;;;;;14.52;72.68;100320.38;5012481;28;20030;-91
2021/09/29 00:53:52;;;;;;;3.45;0.70;;;;;;;14.53;73.00;100312.31;5012398;28;20030;-90
2021/09/29 00:56:18;;;;;;;1.95;0.60;;;;;;;14.23;72.27;100311.31;5012333;28;20029;-90
2021/09/29 00:58:43;;;;;;;5.03;0.63;;;;;;;14.34;72.59;100312.22;5012403;28;20061;-90
2021/09/29 01:01:09;;;;;;;2.53;0.60;;;;;;;14.37;72.65;100315.41;5015010;28;20063;-91
2021/09/29 01:03:35;;;;;;;3.97;0.55;;;;;;;14.29;72.03;100300.22;5024986;28;20076;-91
2021/09/29 01:06:07;;;;;;;2.80;0.68;;;;;;;14.36;71.82;100302.38;5012180;28;20022;-91
2021/09/29 01:08:42;;;;;;;1.35;0.50;;;;;;;14.35;72.06;100304.16;5012318;28;20034;-91
2021/09/29 01:11:36;;;;;;;2.47;0.60;;;;;;;14.24;71.70;100310.34;5012358;28;20084;-90
2021/09/29 01:14:10;;;;;;;4.78;0.70;;;;;;;14.11;72.08;100312.34;5012159;28;20052;-90
2021/09/29 01:16:38;;;;;;;3.13;1.02;;;;;;;14.12;72.04;100313.19;5012114;28;20492;-90
2021/09/29 01:19:19;;;;;;;1.40;0.57;;;;;;;14.10;72.15;100315.97;5023875;28;20034;-90
2021/09/29 01:21:50;;;;;;;4.93;0.70;;;;;;;14.00;72.01;100325.63;5028093;28;20510;-90
2021/09/29 01:24:30;;;;;;;3.78;0.55;;;;;;;14.05;72.36;100331.34;5018699;28;20029;-90
2021/09/29 01:26:58;;;;;;;4.40;0.70;;;;;;;13.94;72.44;100328.78;5012700;28;20105;-90
2021/09/29 01:29:24;;;;;;;10.07;2.28;;;;;;;13.95;72.65;100330.47;5012316;28;20028;-89
2021/09/29 01:31:52;;;;;;;5.53;1.33;;;;;;;13.93;71.54;100338.50;5011204;28;20129;-90
2021/09/29 01:34:18;;;;;;;4.07;0.40;;;;;;;13.98;72.01;100332.81;5012473;28;20028;-91
2021/09/29 01:36:44;;;;;;;2.95;0.93;;;;;;;13.92;71.80;100335.97;5012785;28;20026;-90
2021/09/29 01:39:11;;;;;;;1.27;0.60;;;;;;;13.94;72.21;100332.28;5026308;28;20079;-89
2021/09/29 01:41:38;;;;;;;2.42;0.65;;;;;;;13.97;72.31;100332.00;5032582;28;20033;-90
2021/09/29 01:44:04;;;;;;;4.80;0.50;;;;;;;13.86;72.00;100332.91;5036523;28;20037;-90
2021/09/29 01:46:30;;;;;;;5.13;1.00;;;;;;;13.88;72.83;100330.97;5036735;28;20079;-90
2021/09/29 01:49:20;;;;;;;3.05;0.60;;;;;;;13.93;72.12;100345.59;5036538;28;20467;-90
2021/09/29 01:51:49;;;;;;;2.20;0.60;;;;;;;13.84;71.73;100340.13;5034720;28;20500;-90
2021/09/29 01:54:16;;;;;;;1.67;0.47;;;;;;;13.81;71.68;100350.06;5037307;28;20034;-90
2021/09/29 01:56:44;;;;;;;6.03;0.88;;;;;;;13.78;71.82;100356.44;5036774;28;20088;-90
2021/09/29 01:59:10;;;;;;;4.30;0.70;;;;;;;13.49;70.29;100350.91;5034553;28;20083;-91
2021/09/29 02:01:36;;;;;;;4.57;0.80;;;;;;;13.56;70.94;100372.34;5035674;28;20033;-89
2021/09/29 02:04:03;;;;;;;3.00;0.55;;;;;;;13.45;71.34;100368.78;5036330;28;20087;-90
2021/09/29 02:06:28;;;;;;;5.28;0.60;;;;;;;13.34;69.92;100371.44;5036224;28;20026;-90
2021/09/29 02:08:53;;;;;;;2.03;0.47;;;;;;;13.36;70.75;100374.78;5036062;28;20078;-90
2021/09/29 02:11:19;;;;;;;1.83;0.43;;;;;;;13.37;71.36;100372.97;5036082;28;20017;-90
2021/09/29 02:13:44;;;;;;;5.93;0.50;;;;;;;13.26;71.70;100379.91;5034940;28;20018;-91
2021/09/29 02:16:10;;;;;;;2.08;0.45;;;;;;;13.26;71.44;100384.38;5015097;28;20026;-91
2021/09/29 02:18:35;;;;;;;3.53;0.50;;;;;;;13.22;72.04;100388.22;5015316;28;20026;-92
2021/09/29 02:21:00;;;;;;;2.80;0.63;;;;;;;13.16;71.73;100388.69;5015255;28;20543;-91
2021/09/29 02:23:26;;;;;;;6.20;0.73;;;;;;;13.13;71.98;100389.78;5015331;28;20057;-90
2021/09/29 02:25:51;;;;;;;2.33;0.40;;;;;;;13.08;71.98;100390.13;5016100;28;20021;-91
2021/09/29 02:28:17;;;;;;;4.07;0.45;;;;;;;13.06;72.09;100394.69;5030275;28;20079;-91
2021/09/29 02:30:42;;;;;;;2.03;0.40;;;;;;;12.93;72.44;100399.22;5033694;28;20080;-91
2021/09/29 02:33:08;;;;;;;4.18;0.57;;;;;;;13.01;72.09;100393.38;5033771;28;20030;-91
2021/09/29 02:35:33;;;;;;;3.30;0.52;;;;;;;12.87;71.77;100397.06;5034809;28;20383;-90
2021/09/29 02:37:58;;;;;;;6.10;0.63;;;;;;;12.56;69.70;100404.72;5034517;28;20021;-91
2021/09/29 02:40:24;;;;;;;1.88;0.55;;;;;;;12.59;71.83;100412.38;5034536;28;20468;-91
2021/09/29 02:42:50;;;;;;;1.00;0.40;;;;;;;12.52;71.58;100413.81;5020787;28;20107;-91
2021/09/29 02:45:15;;;;;;;3.00;0.60;;;;;;;12.53;71.52;100420.75;5014922;28;20030;-91
2021/09/29 02:47:41;;;;;;;2.05;0.40;;;;;;;12.61;71.81;100435.97;5014733;28;20018;-90
2021/09/29 02:50:06;;;;;;;1.10;0.43;;;;;;;12.49;71.20;100429.84;5013550;28;20030;-90
2021/09/29 02:52:32;;;;;;;6.32;0.60;;;;;;;12.52;71.66;100426.97;5014258;28;20034;-90
2021/09/29 02:54:58;;;;;;;1.05;0.50;;;;;;;12.49;72.40;100430.66;5018835;28;20029;-90
2021/09/29 02:57:23;;;;;;;4.28;0.60;;;;;;;12.54;72.64;100437.38;5034542;28;20127;-90
2021/09/29 02:59:48;;;;;;;5.65;0.60;;;;;;;12.31;71.14;100429.44;5034299;28;20384;-91
2021/09/29 03:02:14;;;;;;;3.13;0.60;;;;;;;12.23;71.89;100437.91;5034536;28;20017;-88
2021/09/29 03:04:39;;;;;;;4.50;0.60;;;;;;;12.09;72.53;100445.97;5034169;28;20053;-90
2021/09/29 03:07:05;;;;;;;2.45;0.60;;;;;;;12.12;72.96;100448.38;5034057;28;20060;-90
2021/09/29 03:09:30;;;;;;;3.85;0.70;;;;;;;11.99;72.54;100451.09;5030816;28;20032;-90
2021/09/29 03:11:55;;;;;;;7.75;1.65;;;;;;;12.00;72.86;100452.75;5014543;28;20033;-89
2021/09/29 03:14:21;;;;;;;2.65;0.63;;;;;;;11.97;73.12;100449.53;5014337;28;20033;-90
2021/09/29 03:16:46;;;;;;;2.50;0.60;;;;;;;12.03;73.10;100455.16;5014287;28;20132;-90
2021/09/29 03:19:11;;;;;;;5.63;0.90;;;;;;;12.00;73.08;100463.28;5014260;28;20473;-90
2021/09/29 03:21:37;;;;;;;2.85;0.63;;;;;;;11.94;72.96;100458.47;5012699;28;20038;-90
2021/09/29 03:24:02;;;;;;;1.58;0.60;;;;;;;12.09;71.74;100467.03;5013461;28;20026;-90
2021/09/29 03:26:28;;;;;;;5.10;0.60;;;;;;;12.03;71.59;100475.38;5013751;28;20022;-90
2021/09/29 03:28:53;;;;;;;5.13;0.60;;;;;;;11.88;72.69;100475.50;5013969;28;20405;-90
2021/09/29 03:31:19;;;;;;;2.20;0.82;;;;;;;11.98;72.79;100480.13;5013863;28;20068;-89
2021/09/29 03:33:44;;;;;;;2.95;0.80;;;;;;;12.04;72.94;100484.94;5013915;28;20527;-90
2021/09/29 03:36:09;;;;;;;2.28;0.60;;;;;;;12.00;71.72;100489.59;5017081;28;20025;-90
2021/09/29 03:38:36;;;;;;;1.10;0.45;;;;;;;12.04;72.66;100484.94;5033655;28;20498;-90
2021/09/29 03:41:01;;;;;;;2.35;0.80;;;;;;;12.07;72.79;100482.94;5033267;28;20033;-90
2021/09/29 03:43:26;;;;;;;2.97;0.63;;;;;;;11.95;71.52;100490.88;5032201;28;20468;-90
2021/09/29 03:45:52;;;;;;;1.63;0.57;;;;;;;11.95;72.71;100496.13;5033435;28;20052;-90
2021/09/29 03:48:17;;;;;;;2.58;0.60;;;;;;;11.87;69.72;100499.31;5032141;28;20117;-90
2021/09/29 03:50:43;;;;;;;1.23;0.50;;;;;;;11.90;72.63;100499.94;5031399;28;20059;-90
2021/09/29 03:53:08;;;;;;;1.98;0.45;;;;;;;11.84;72.11;100502.97;5019001;28;20040;-90
2021/09/29 03:55:33;;;;;;;3.05;0.50;;;;;;;11.88;72.43;100506.22;5032093;28;20063;-90
2021/09/29 03:57:59;;;;;;;2.42;0.88;;;;;;;11.69;71.97;100499.66;5033042;28;20448;-90
2021/09/29 04:00:24;;;;;;;2.58;0.55;;;;;;;11.76;72.14;100509.75;5033087;28;20473;-90
2021/09/29 04:02:50;;;;;;;2.08;0.50;;;;;;;11.69;71.71;100506.72;5015245;28;20022;-90
2021/09/29 04:05:15;;;;;;;2.47;0.30;;;;;;;11.66;72.03;100512.19;5011144;28;20022;-90
2021/09/29 04:07:40;;;;;;;3.60;0.80;;;;;;;11.59;71.93;100506.53;5013051;28;20033;-91
2021/09/29 04:10:08;;;;;;;2.15;0.70;;;;;;;11.62;72.25;100506.31;5013256;28;20394;-90
2021/09/29 04:12:34;;;;;;;3.22;0.70;;;;;;;11.62;72.34;100523.88;5011877;28;20053;-90
2021/09/29 04:14:59;;;;;;;1.98;0.60;;;;;;;11.60;72.32;100512.63;5013066;28;20437;-90
2021/09/29 04:17:24;;;;;;;1.15;0.52;;;;;;;11.55;72.28;100522.63;5020076;28;20069;-90
2021/09/29 04:19:50;;;;;;;3.20;0.60;;;;;;;11.50;71.75;100538.72;5012966;28;20109;-91
2021/09/29 04:22:15;;;;;;;2.78;0.75;;;;;;;11.45;71.65;100544.31;5013015;28;20021;-90
2021/09/29 04:24:44;;;;;;;1.88;0.77;;;;;;;11.52;72.22;100542.91;5012890;28;20029;-90
2021/09/29 04:27:10;;;;;;;2.42;0.60;;;;;;;11.40;71.98;100546.41;5012727;28;20026;-90
2021/09/29 04:29:36;;;;;;;1.38;0.57;;;;;;;11.39;72.51;100552.59;5012846;28;20099;-90
2021/09/29 04:32:02;;;;;;;0.95;0.52;;;;;;;11.40;72.38;100550.84;5013100;28;20033;-90
2021/09/29 04:34:27;;;;;;;1.63;0.70;;;;;;;11.41;72.76;100555.97;5011232;28;20564;-90
2021/09/29 04:36:52;;;;;;;6.82;0.70;;;;;;;11.36;72.89;100558.09;5012585;28;20499;-92
2021/09/29 04:39:18;;;;;;;2.70;0.68;;;;;;;11.37;72.54;100567.63;5012744;28;20033;-90
2021/09/29 04:41:44;;;;;;;6.95;2.08;;;;;;;11.34;72.49;100565.25;5012370;28;20392;-90
2021/09/29 04:44:09;;;;;;;1.67;0.70;;;;;;;11.39;72.28;100571.00;5012740;28;20022;-90
2021/09/29 04:46:35;;;;;;;1.77;0.68;;;;;;;11.41;71.88;100577.00;5018922;28;20021;-90
2021/09/29 04:49:00;;;;;;;2.50;0.80;;;;;;;11.44;72.93;100582.06;5030799;28;20038;-90
2021/09/29 04:51:26;;;;;;;2.45;0.68;;;;;;;11.46;73.22;100588.06;5032113;28;20021;-90
2021/09/29 04:53:51;;;;;;;2.28;0.70;;;;;;;11.32;72.30;100586.38;5032384;28;20025;-91
2021/09/29 04:56:17;;;;;;;3.47;0.82;;;;;;;11.36;73.03;100589.63;5031993;28;20036;-91
2021/09/29 04:58:46;;;;;;;3.88;1.13;;;;;;;11.48;73.15;100598.47;5032092;28;20020;-90
2021/09/29 05:01:13;;;;;;;9.38;0.88;;;;;;;11.61;73.42;100598.44;5024807;28;20488;-90
2021/09/29 05:03:39;;;;;;;3.33;0.82;;;;;;;11.60;72.51;100599.41;5012237;28;20036;-90
2021/09/29 05:06:05;;;;;;;5.70;2.30;;;;;;;11.59;72.25;100605.59;5012174;28;20392;-90
2021/09/29 05:08:33;;;;;;;7.38;1.27;;;;;;;11.74;72.85;100609.81;5012410;28;20407;-90
2021/09/29 05:11:22;;;;;;;5.40;0.98;;;;;;;11.82;72.69;100611.91;5012099;28;20034;-90
2021/09/29 05:13:48;;;;;;;1.95;0.52;;;;;;;11.68;72.88;100615.50;5009133;28;20040;-91
2021/09/29 05:16:14;;;;;;;2.60;0.50;;;;;;;11.48;72.48;100620.34;5018440;28;20022;-90
2021/09/29 05:18:39;;;;;;;4.20;1.13;;;;;;;11.38;72.77;100624.53;5030176;28;20052;-91
2021/09/29 05:21:05;;;;;;;2.78;0.80;;;;;;;11.33;73.29;100621.38;5031928;28;20492;-91
2021/09/29 05:23:31;;;;;;;4.65;0.82;;;;;;;11.48;72.36;100637.91;5031910;28;20028;-90
2021/09/29 05:25:57;;;;;;;4.68;0.70;;;;;;;11.50;72.17;100642.09;5031696;28;20028;-90
2021/09/29 05:28:26;;;;;;;1.88;0.73;;;;;;;11.60;72.19;100638.88;5031883;28;20028;-91
2021/09/29 05:30:52;;;;;;;1.27;0.45;;;;;;;11.52;71.80;100645.47;5031666;28;20029;-90
2021/09/29 05:33:17;;;;;;;1.50;0.70;;;;;;;11.32;72.04;100635.47;5024585;28;20033;-89
2021/09/29 05:35:42;;;;;;;5.40;1.00;;;;;;;11.32;70.30;100656.50;5011844;28;20021;-89
2021/09/29 05:38:08;;;;;;;4.90;0.68;;;;;;;11.29;72.39;100669.84;5010668;28;20018;-90
2021/09/29 05:40:33;;;;;;;5.25;0.63;;;;;;;11.36;72.47;100662.41;5011734;28;20392;-90
2021/09/29 05:42:59;;;;;;;3.92;0.75;;;;;;;11.24;71.84;100669.31;5011840;28;20034;-90
2021/09/29 05:45:24;;;;;;;6.10;0.63;;;;;;;11.24;72.12;100670.16;5011933;28;20531;-92
2021/09/29 05:47:52;;;;;;;3.53;0.75;;;;;;;11.24;73.09;100669.31;5014944;28;20056;-89
2021/09/29 05:50:17;;;;;;;2.78;0.68;;;;;;;11.22;72.81;100681.72;5013661;28;20033;-92
2021/09/29 05:52:43;;;;;;;1.52;0.70;;;;;;;11.24;72.32;100691.19;5012997;28;20018;-92
2021/09/29 05:55:08;;;;;;;1.63;0.75;;;;;;;11.19;72.29;100693.25;5010664;28;20073;-92
2021/09/29 05:57:34;;;;;;;4.88;0.95;;;;;;;11.06;71.88;100701.13;5012801;28;20128;-91
2021/09/29 05:59:59;;;;;;;1.63;0.70;;;;;;;11.14;73.50;100707.66;5012196;28;20026;-89
2021/09/29 06:02:25;;;;;;;3.75;0.63;;;;;;;11.14;73.58;100720.78;5010122;28;20468;-88
2021/09/29 06:04:50;;;;;;;6.30;1.27;;;;;;;11.04;72.18;100702.19;5014529;28;20426;-90
2021/09/29 06:07:17;;;;;;;4.43;0.93;;;;;;;10.94;72.13;100720.31;5031477;28;20104;-90
2021/09/29 06:09:44;;;;;;;6.75;0.70;;;;;;;10.76;72.98;100714.44;5008604;28;20076;-90
2021/09/29 06:12:11;;;;;;;4.88;0.80;;;;;;;10.99;73.43;100734.00;5008701;28;20034;-90
2021/09/29 06:14:37;;;;;;;1.70;0.52;;;;;;;10.96;73.03;100733.34;5012873;28;20026;-91
2021/09/29 06:17:20;;;;;;;6.35;0.73;;;;;;;10.92;73.50;100737.97;5006876;28;20025;-90
2021/09/29 06:19:45;;;;;;;1.05;0.40;;;;;;;10.99;73.39;100744.50;5003799;28;20026;-90
2021/09/29 06:22:11;;;;;;;4.18;0.70;;;;;;;10.94;72.96;100746.59;5003424;28;20488;-90
2021/09/29 06:24:36;;;;;;;5.40;0.88;;;;;;;10.96;73.64;100749.97;4991984;28;20022;-90
2021/09/29 06:27:02;;;;;;;3.15;0.50;;;;;;;11.02;73.64;100754.81;5001101;28;20447;-89
2021/09/29 06:29:27;;;;;;;2.42;0.55;;;;;;;11.01;73.05;100765.44;4995149;28;20030;-90
2021/09/29 06:31:55;;;;;;;2.90;0.43;;;;;;;11.03;73.62;100764.38;5011380;28;20022;-90
2021/09/29 06:34:21;;;;;;;4.70;0.70;;;;;;;11.13;73.83;100769.06;5013673;28;20068;-90
2021/09/29 06:36:46;;;;;;;3.33;0.85;;;;;;;11.18;73.48;100778.34;5014843;28;20054;-90
2021/09/29 06:39:11;;;;;;;1.75;0.43;;;;;;;11.19;73.98;100774.75;5014788;28;20078;-89
2021/09/29 06:41:37;;;;;;;4.65;0.90;;;;;;;11.09;73.46;100766.59;5014667;28;20037;-89
2021/09/29 06:44:02;;;;;;;4.60;0.73;;;;;;;11.12;73.86;100794.50;5026668;28;20154;-89
2021/09/29 06:46:28;;;;;;;2.70;0.50;;;;;;;11.20;73.38;100791.38;5033054;28;20415;-89
2021/09/29 06:48:53;;;;;;;1.65;0.43;;;;;;;11.19;73.50;100797.56;5034662;28;20164;-90
2021/09/29 06:51:18;;;;;;;3.90;1.20;;;;;;;11.13;73.34;100800.59;5034462;28;20392;-90
2021/09/29 06:53:44;;;;;;;3.22;0.73;;;;;;;11.28;74.09;100803.06;5034409;28;20361;-89
2021/09/29 06:56:09;;;;;;;3.78;0.80;;;;;;;11.29;73.34;100810.03;5034202;28;20100;-90
2021/09/29 06:58:35;;;;;;;5.28;0.60;;;;;;;11.39;73.88;100820.78;5024033;28;20460;-90
2021/09/29 07:01:00;;;;;;;4.20;0.70;;;;;;;11.50;74.02;100826.19;5014585;28;20419;-89
2021/09/29 07:03:26;;;;;;;1.95;0.63;;;;;;;11.56;74.13;100832.00;5013263;28;20026;-91
2021/09/29 07:05:51;;;;;;;2.45;0.70;;;;;;;11.65;74.17;100836.63;5014283;28;20105;-89
2021/09/29 07:08:16;;;;;;;3.83;0.60;;;;;;;11.70;73.41;100845.91;5013131;28;20033;-89
2021/09/29 07:10:43;;;;;;;6.57;0.70;;;;;;;11.80;74.07;100854.06;5014358;28;20034;-90
2021/09/29 07:13:10;;;;;;;4.15;1.00;;;;;;;12.14;75.06;100838.66;5022339;28;20029;-89
2021/09/29 07:15:35;;;;;;;7.25;1.05;;;;;;;12.56;75.75;100847.22;5028181;28;20022;-89
2021/09/29 07:18:01;;;;;;;3.22;1.38;;;;;;;13.35;75.47;100855.75;5029777;28;20033;-90
2021/09/29 07:20:27;;;;;;;3.70;1.13;;;;;;;13.96;71.23;100858.31;5033850;28;20116;-90
2021/09/29 07:22:54;;;;;;;3.00;1.33;;;;;;;14.25;71.69;100864.00;5034007;28;20021;-90
2021/09/29 07:25:20;;;;;;;5.07;1.33;;;;;;;14.40;71.50;100869.09;5032406;28;20378;-91
2021/09/29 07:27:45;;;;;;;3.17;1.10;;;;;;;14.44;71.65;100870.53;5035383;28;20104;-90
2021/09/29 07:30:11;;;;;;;4.40;0.80;;;;;;;14.53;70.03;100882.19;5034199;28;20121;-90
2021/09/29 07:32:36;;;;;;;5.88;0.90;;;;;;;14.78;68.85;100875.88;5030836;28;20052;-89
2021/09/29 07:35:02;;;;;;;2.65;1.02;;;;;;;15.43;68.37;100880.34;5026332;28;20031;-89
2021/09/29 07:37:28;;;;;;;8.48;1.55;;;;;;;15.92;67.21;100887.94;5033349;28;20041;-89
2021/09/29 07:39:53;;;;;;;7.30;1.00;;;;;;;16.47;66.03;100893.91;5033193;28;20479;-90
2021/09/29 07:42:19;;;;;;;8.63;0.88;;;;;;;16.53;63.84;100897.81;5031983;28;20511;-90
2021/09/29 07:44:44;;;;;;;6.95;1.17;;;;;;;17.16;64.28;100905.66;5032230;28;20468;-90
2021/09/29 07:47:10;;;;;;;5.53;0.60;;;;;;;17.57;60.80;100893.19;5033367;28;20017;-89
2021/09/29 07:49:36;;;;;;;2.17;0.73;;;;;;;17.10;60.42;100906.22;5031669;28;20487;-91
2021/09/29 07:52:01;;;;;;;1.83;0.80;;;;;;;18.73;60.28;100907.41;5033261;28;20033;-90
2021/09/29 07:54:27;;;;;;;8.23;1.83;;;;;;;19.75;53.33;100917.16;5033315;28;20064;-90
2021/09/29 07:56:54;;;;;;;7.10;1.20;;;;;;;20.79;52.37;100908.44;5033126;28;20033;-90
2021/09/29 07:59:19;;;;;;;2.67;0.68;;;;;;;21.49;49.89;100916.28;5033222;28;20045;-90
2021/09/29 08:01:44;;;;;;;3.88;1.05;;;;;;;22.06;52.78;100923.53;5032978;28;20396;-91
2021/09/29 08:04:10;;;;;;;3.15;0.90;;;;;;;23.24;53.86;100920.31;5021088;28;20052;-91
2021/09/29 08:06:36;;;;;;;7.82;0.80;;;;;;;24.14;48.86;100929.66;5013273;28;20052;-91
2021/09/29 08:09:03;;;;;;;4.72;1.52;;;;;;;23.29;44.14;100935.88;5013348;28;20558;-91
2021/09/29 08:11:29;;;;;;;5.32;1.00;;;;;;;24.48;48.39;100937.22;5010774;28;20022;-92
2021/09/29 08:13:54;;;;;;;3.53;0.93;;;;;;;25.16;45.38;100937.19;5004605;28;20488;-92
2021/09/29 08:16:20;;;;;;;5.18;1.17;;;;;;;24.10;45.18;100947.97;4992121;28;20113;-91
2021/09/29 08:18:45;;;;;;;8.30;0.70;;;;;;;24.85;45.72;100948.97;5004382;28;20030;-91
2021/09/29 08:21:16;;;;;;;3.80;0.60;;;;;;;26.34;41.71;100945.06;4993304;28;20030;-92
2021/09/29 08:23:45;;;;;;;3.65;0.90;;;;;;;26.10;44.05;100941.78;5011637;28;20523;-92
2021/09/29 08:26:26;;;;;;;6.00;1.27;;;;;;;26.80;41.32;100937.34;5004213;28;20050;-91
2021/09/29 08:31:40;;;;;;;6.95;0.88;;;;;;;23.60;47.01;100948.44;5016954;28;20084;-90
2021/09/29 08:34:15;;;;;;;14.05;1.48;;;;;;;25.57;42.97;100947.41;5008275;28;20026;-91
2021/09/29 08:39:14;;;;;;;5.13;0.80;;;;;;;27.01;43.09;100949.88;4995343;28;20022;-90
2021/09/29 08:44:27;;;;;;;6.43;1.20;;;;;;;26.86;41.27;100966.19;5011741;28;20022;-90
2021/09/29 08:57:40;;;;;;;5.07;0.70;;;;;;;26.38;42.70;100990.25;5027418;28;20026;-90
2021/09/29 09:16:37;;;;;;;6.20;0.70;;;;;;;27.46;36.75;101019.63;5001237;28;20057;-91
2021/09/29 09:19:08;;;;;;;6.57;1.13;;;;;;;25.40;41.03;101026.63;5004673;28;20026;-92
2021/09/29 09:21:36;;;;;;;;;;;;;;;25.76;39.11;101032.03;4997793;28;20426;-91
2021/09/29 09:24:13;;;;;;;6.60;1.20;;;;;;;25.05;41.93;101037.06;4993659;28;19921;-92
2021/09/29 09:26:38;;;;;;;3.38;0.77;;;;;;;26.85;37.08;101034.56;4996428;28;20062;-91
2021/09/29 09:29:06;;;;;;;3.33;0.70;;;;;;;26.54;37.74;101048.41;4998249;28;20054;-92
2021/09/29 09:31:32;;;;;;;10.70;0.68;;;;;;;26.23;40.22;101043.34;5018208;28;20034;-92
2021/09/29 09:34:00;;;;;;;4.75;0.55;;;;;;;26.23;37.60;101043.34;5011686;28;20030;-91
2021/09/29 09:36:56;;;;;;;3.95;0.90;;;;;;;27.16;36.18;101044.13;5011175;28;20033;-92
2021/09/29 09:39:23;;;;;;;2.63;0.95;;;;;;;27.79;37.18;101051.31;4996540;28;20465;-92
2021/09/29 09:41:51;;;;;;;4.03;0.68;;;;;;;27.79;35.49;101041.31;5006885;28;20062;-92
2021/09/29 09:44:22;;;;;;;5.45;0.90;;;;;;;26.45;37.54;101063.03;4993098;28;20484;-91
2021/09/29 09:47:05;;;;;;;2.25;0.50;;;;;;;26.26;36.92;101054.56;5017213;28;20037;-92
2021/09/29 09:49:46;;;;;;;6.82;1.10;;;;;;;25.99;37.13;101058.84;5017210;28;20066;-91
2021/09/29 09:52:12;;;;;;;4.03;0.70;;;;;;;24.51;40.55;101059.56;5012143;28;20026;-92
2021/09/29 09:54:39;;;;;;;11.30;1.92;;;;;;;25.52;39.09;101057.41;5011701;28;20030;-92
2021/09/29 09:57:17;;;;;;;3.90;0.60;;;;;;;24.00;44.00;101068.06;5009639;28;20025;-92
2021/09/29 09:59:47;;;;;;;5.55;1.17;;;;;;;26.24;39.36;101064.66;5033190;28;20022;-92
2021/09/29 10:02:12;;;;;;;3.90;0.80;;;;;;;26.54;37.14;101066.41;5028903;28;20033;-92
2021/09/29 10:04:37;;;;;;;4.28;0.63;;;;;;;27.18;38.53;101074.41;5036395;28;20021;-92
2021/09/29 10:07:06;;;;;;;7.15;0.85;;;;;;;26.08;38.02;101073.00;5035911;28;20018;-93
2021/09/29 10:23:15;;;;;;;4.25;0.93;;;;;;;24.36;40.34;101105.06;5006048;28;20131;-92
2021/09/29 10:26:13;;;;;;;5.25;0.80;;;;;;;24.33;39.56;101102.78;5013266;28;20051;-92
2021/09/29 10:28:41;;;;;;;6.53;0.90;;;;;;;24.80;40.00;101106.28;5033458;28;20028;-93
2021/09/29 10:33:45;;;;;;;2.88;0.70;;;;;;;25.28;38.81;101117.66;5015066;28;20427;-93
2021/09/29 10:47:01;;;;;;;2.85;0.55;;;;;;;25.59;39.07;101136.28;4994825;28;20102;-94
2021/09/29 11:30:44;;;;;;;13.35;1.40;;;;;;;22.70;41.78;101169.94;5032151;28;20057;-92
2021/09/29 11:33:23;;;;;;;4.68;0.82;;;;;;;21.72;39.94;101159.72;5033717;28;20037;-92
2021/09/29 11:36:19;;;;;;;5.30;0.73;;;;;;;21.76;41.57;101173.56;5033495;28;20053;-92
2021/09/29 12:08:53;;;;;;;4.38;0.50;;;;;;;22.38;42.01;101184.09;5013244;28;20036;-92
2021/09/29 12:11:24;;;;;;;1.75;0.43;;;;;;;22.15;41.76;101189.97;5014116;28;20030;-92
2021/09/29 12:16:31;;;;;;;7.10;0.80;;;;;;;21.70;41.08;101215.16;5013282;28;20008;-91
2021/09/29 12:19:03;;;;;;;6.10;0.73;;;;;;;20.53;44.90;101216.06;5018536;28;20495;-91
2021/09/29 12:21:48;;;;;;;3.42;0.68;;;;;;;20.25;48.49;101227.72;5022030;28;20073;-92
2021/09/29 12:24:34;;;;;;;3.67;0.50;;;;;;;19.38;51.95;101233.09;5013115;28;20029;-91
2021/09/29 12:27:01;;;;;;;2.83;0.40;;;;;;;19.02;53.60;101251.47;5012249;28;20486;-91
2021/09/29 12:29:34;;;;;;;1.88;0.40;;;;;;;19.07;53.78;101244.88;5011733;28;20365;-91
2021/09/29 12:37:39;;;;;;;4.95;0.45;;;;;;;19.39;54.43;101237.47;4993972;28;20038;-91
2021/09/29 12:40:05;;;;;;;3.85;0.50;;;;;;;19.92;52.80;101245.94;4993125;28;20054;-91
2021/09/29 12:42:35;;;;;;;4.75;0.65;;;;;;;20.63;52.26;101244.53;4993017;28;20060;-91
2021/09/29 12:45:02;;;;;;;2.05;0.47;;;;;;;21.33;48.42;101239.41;4993111;28;20022;-91
2021/09/29 12:47:48;;;;;;;1.95;0.32;;;;;;;21.15;45.64;101253.59;4992980;28;20519;-91
2021/09/29 12:50:16;;;;;;;4.90;0.55;;;;;;;21.90;46.11;101257.69;5024012;28;20041;-91
2021/09/29 12:52:50;;;;;;;4.90;1.05;;;;;;;22.01;46.32;101251.25;5036124;28;20478;-91
2021/09/29 12:55:30;;;;;;;3.92;0.50;;;;;;;22.68;45.15;101254.09;5031631;28;20460;-92
2021/09/29 12:57:55;;;;;;;3.05;0.60;;;;;;;22.17;44.01;101262.88;5036155;28;20026;-93
2021/09/29 13:00:21;;;;;;;3.60;0.35;;;;;;;21.58;45.63;101257.34;5031140;28;20384;-91
2021/09/29 13:02:46;;;;;;;4.05;0.50;;;;;;;20.78;46.04;101256.41;5035420;28;20014;-91
2021/09/29 13:05:11;;;;;;;2.80;0.57;;;;;;;20.40;46.78;101253.75;5011310;28;20027;-91
2021/09/29 13:07:37;;;;;;;6.35;0.77;;;;;;;20.48;47.43;101257.50;4994368;28;20027;-91
2021/09/29 13:10:03;;;;;;;3.83;0.70;;;;;;;20.39;47.64;101273.41;4994000;28;20026;-90
2021/09/29 13:12:30;;;;;;;5.15;0.80;;;;;;;19.91;47.64;101265.59;4993622;28;20030;-91
2021/09/29 13:14:55;;;;;;;4.93;1.10;;;;;;;19.67;47.86;101272.19;4992919;28;20026;-91
2021/09/29 13:17:21;;;;;;;7.20;0.88;;;;;;;19.32;48.55;101278.94;4997992;28;20077;-91
2021/09/29 13:19:57;;;;;;;6.72;0.80;;;;;;;19.44;49.17;101276.97;5017026;28;20029;-91
2021/09/29 13:22:25;;;;;;;5.03;0.90;;;;;;;19.38;49.84;101280.22;5014848;28;20060;-90
2021/09/29 13:38:12;;;;;;;4.80;1.17;;;;;;;18.55;50.66;101287.59;5035377;28;20025;-91
2021/09/29 13:40:40;;;;;;;5.50;0.70;;;;;;;18.45;50.36;101292.06;5020583;28;20113;-93
2021/09/29 13:43:06;;;;;;;4.35;0.63;;;;;;;19.13;50.75;101292.25;5017029;28;20029;-92
2021/09/29 13:45:32;;;;;;;5.97;1.25;;;;;;;19.23;49.39;101287.75;5015412;28;20032;-92
2021/09/29 13:47:58;;;;;;;30.13;4.57;;;;;;;19.65;49.86;101295.47;5017012;28;20036;-90
2021/09/29 13:50:23;;;;;;;6.40;1.08;;;;;;;19.58;47.89;101297.84;5022711;28;20017;-92
2021/09/29 13:52:49;;;;;;;8.07;1.25;;;;;;;19.62;46.56;101291.25;5016391;28;20022;-93
2021/09/29 13:55:18;;;;;;;8.80;0.85;;;;;;;20.10;46.85;101296.66;5017549;28;20030;-93
2021/09/29 13:57:56;;;;;;;5.22;1.05;;;;;;;20.04;47.03;101300.75;5013937;28;20061;-92
2021/09/29 14:01:43;;;;;;;3.80;0.88;;;;;;;20.47;46.43;101288.69;5015068;28;20025;-92